createdAt,value
2019-05-03T00:02:09.771Z,94759.44
2019-05-03T00:04:35.762Z,94758.10
2019-05-03T00:07:02.743Z,94754.23
2019-05-03T00:09:27.880Z,94759.97
2019-05-03T00:11:53.880Z,94753.81
2019-05-03T00:14:21.695Z,94758.22
2019-05-03T00:16:45.888Z,94759.14
2019-05-03T00:19:12.736Z,94757.39
2019-05-03T00:21:37.914Z,94761.39
2019-05-03T00:24:03.907Z,94755.65
2019-05-03T00:26:31.707Z,94756.06
2019-05-03T00:28:55.929Z,94755.65
2019-05-03T00:31:22.615Z,94755.23
2019-05-03T00:33:47.946Z,94752.19
2019-05-03T00:36:13.947Z,94757.52
2019-05-03T00:38:41.773Z,94754.94
2019-05-03T00:41:05.965Z,94755.77
2019-05-03T00:43:31.973Z,94756.69
2019-05-03T00:45:57.978Z,94758.02
2019-05-03T00:48:23.973Z,94753.61
2019-05-03T00:50:51.652Z,94753.61
2019-05-03T00:53:16.038Z,94763.34
2019-05-03T00:55:42.078Z,94762.11
2019-05-03T00:58:08.071Z,94758.11
2019-05-03T01:00:34.068Z,94763.06
2019-05-03T01:03:01.985Z,94761.60
2019-05-03T01:05:26.075Z,94761.31
2019-05-03T01:07:52.531Z,94759.98
2019-05-03T01:10:18.108Z,94761.81
2019-05-03T01:12:44.207Z,94764.89
2019-05-03T01:15:12.328Z,94762.86
2019-05-03T01:17:36.218Z,94763.15
2019-05-03T01:20:02.776Z,94763.27
2019-05-03T01:22:28.232Z,94772.59
2019-05-03T01:24:54.264Z,94772.06
2019-05-03T01:27:22.002Z,94772.59
2019-05-03T01:29:46.280Z,94774.02
2019-05-03T01:32:12.311Z,94770.44
2019-05-03T01:34:38.298Z,94770.02
2019-05-03T01:37:04.299Z,94770.02
2019-05-03T01:39:31.634Z,94763.86
2019-05-03T01:41:56.318Z,94771.86
2019-05-03T01:44:22.333Z,94765.73
2019-05-03T01:46:48.356Z,94767.86
2019-05-03T01:49:14.342Z,94764.91
2019-05-03T01:51:41.969Z,94767.16
2019-05-03T01:54:06.349Z,94768.91
2019-05-03T01:56:32.374Z,94761.41
2019-05-03T01:58:58.405Z,94761.03
2019-05-03T02:01:24.419Z,94763.16
2019-05-03T02:03:52.257Z,94761.41
2019-05-03T02:06:16.420Z,94764.08
2019-05-03T02:08:42.437Z,94765.03
2019-05-03T02:11:08.436Z,94760.20
2019-05-03T02:13:34.460Z,94758.45
2019-05-03T02:16:02.127Z,94763.28
2019-05-03T02:18:26.470Z,94761.12
2019-05-03T02:20:52.596Z,94764.70
2019-05-03T02:23:18.499Z,94763.37
2019-05-03T02:25:55.601Z,94756.83
2019-05-03T02:28:12.476Z,94768.70
2019-05-03T02:30:36.529Z,94770.95
2019-05-03T02:33:04.077Z,94772.28
2019-05-03T02:35:28.546Z,94770.56
2019-05-03T02:37:54.547Z,94771.98
2019-05-03T02:40:24.256Z,94776.69
2019-05-03T02:42:46.594Z,94771.98
2019-05-03T02:45:15.309Z,94771.98
2019-05-03T02:47:38.584Z,94774.66
2019-05-03T02:50:05.866Z,94771.58
2019-05-03T02:52:30.576Z,94767.16
2019-05-03T02:54:56.596Z,94775.06
2019-05-03T02:57:22.587Z,94774.23
2019-05-03T02:59:49.943Z,94780.90
2019-05-03T03:02:15.160Z,94788.48
2019-05-03T03:04:40.698Z,94787.14
2019-05-03T03:07:06.722Z,94790.34
2019-05-03T03:09:32.718Z,94785.02
2019-05-03T03:11:58.865Z,94780.61
2019-05-03T03:14:25.760Z,94787.27
2019-05-03T03:16:50.911Z,94796.18
2019-05-03T03:19:16.909Z,94798.02
2019-05-03T03:21:42.926Z,94793.52
2019-05-03T03:24:08.940Z,94797.09
2019-05-03T03:26:41.538Z,94797.22
2019-05-03T03:29:00.948Z,94791.89
2019-05-03T03:31:28.225Z,94795.47
2019-05-03T03:33:53.027Z,94797.63
2019-05-03T03:36:49.652Z,94792.80
2019-05-03T03:38:45.895Z,94795.47
2019-05-03T03:41:11.062Z,94795.97
2019-05-03T03:43:37.056Z,94793.31
2019-05-03T03:46:05.341Z,94801.72
2019-05-03T03:48:29.072Z,94808.08
2019-05-03T03:50:56.158Z,94803.87
2019-05-03T03:53:21.107Z,94798.64
2019-05-03T03:55:47.130Z,94802.34
2019-05-03T03:58:17.668Z,94800.80
2019-05-03T04:00:39.139Z,94800.38
2019-05-03T04:03:05.823Z,94807.97
2019-05-03T04:05:31.174Z,94811.45
2019-05-03T04:07:57.193Z,94810.21
2019-05-03T04:10:25.893Z,94815.45
2019-05-03T04:12:49.185Z,94816.88
2019-05-03T04:15:16.007Z,94817.82
2019-05-03T04:17:41.204Z,94812.38
2019-05-03T04:20:07.225Z,94816.37
2019-05-03T04:22:35.753Z,94816.78
2019-05-03T04:24:59.236Z,94815.16
2019-05-03T04:27:27.576Z,94819.45
2019-05-03T04:29:51.269Z,94819.45
2019-05-03T04:32:17.274Z,94823.86
2019-05-03T04:34:45.297Z,94828.77
2019-05-03T04:37:09.303Z,94831.44
2019-05-03T04:39:36.138Z,94826.94
2019-05-03T04:42:01.286Z,94835.02
2019-05-03T04:44:27.338Z,94837.18
2019-05-03T04:46:55.992Z,94831.31
2019-05-03T04:49:19.358Z,94836.64
2019-05-03T04:51:46.484Z,94841.97
2019-05-03T04:54:11.374Z,94840.14
2019-05-03T04:56:37.367Z,94833.48
2019-05-03T04:59:05.204Z,94831.31
2019-05-03T05:01:29.430Z,94824.98
2019-05-03T05:03:55.911Z,94824.56
2019-05-03T05:06:21.443Z,94830.60
2019-05-03T05:08:47.464Z,94832.35
2019-05-03T05:11:15.837Z,94835.84
2019-05-03T05:13:39.590Z,94840.76
2019-05-03T05:16:06.111Z,94842.09
2019-05-03T05:18:31.606Z,94842.38
2019-05-03T05:20:57.595Z,94847.71
2019-05-03T05:23:25.070Z,94845.88
2019-05-03T05:25:49.616Z,94850.29
2019-05-03T05:28:15.632Z,94847.20
2019-05-03T05:30:41.666Z,94846.88
2019-05-03T05:33:07.696Z,94844.75
2019-05-03T05:35:35.200Z,94843.84
2019-05-03T05:37:59.708Z,94841.67
2019-05-03T05:40:25.714Z,94840.76
2019-05-03T05:42:51.731Z,94841.17
2019-05-03T05:45:17.733Z,94842.18
2019-05-03T05:47:44.860Z,94843.52
2019-05-03T05:50:09.780Z,94846.59
2019-05-03T05:52:35.845Z,94845.76
2019-05-03T05:55:01.845Z,94852.03
2019-05-03T05:57:27.861Z,94852.42
2019-05-03T05:59:54.490Z,94862.16
2019-05-03T06:02:20.050Z,94858.16
2019-05-03T06:04:46.096Z,94862.16
2019-05-03T06:07:12.106Z,94861.24
2019-05-03T06:09:38.112Z,94864.41
2019-05-03T06:12:04.520Z,94858.58
2019-05-03T06:14:30.134Z,94864.73
2019-05-03T06:16:56.153Z,94863.41
2019-05-03T06:19:22.173Z,94866.87
2019-05-03T06:21:48.166Z,94865.16
2019-05-03T06:24:14.786Z,94874.36
2019-05-03T06:26:40.182Z,94866.48
2019-05-03T06:29:06.199Z,94874.77
2019-05-03T06:31:34.296Z,94876.19
2019-05-03T06:33:58.208Z,94873.44
2019-05-03T06:36:24.399Z,94873.44
2019-05-03T06:38:50.233Z,94875.69
2019-05-03T06:41:16.337Z,94876.10
2019-05-03T06:43:47.151Z,94868.94
2019-05-03T06:46:08.267Z,94871.60
2019-05-03T06:48:35.191Z,94875.59
2019-05-03T06:51:05.182Z,94870.77
2019-05-03T06:53:26.316Z,94867.61
2019-05-03T06:55:52.344Z,94858.78
2019-05-03T06:58:30.357Z,94862.78
2019-05-03T07:00:45.185Z,94854.78
2019-05-03T07:03:10.541Z,94848.63
2019-05-03T07:05:36.559Z,94854.08
2019-05-03T07:08:02.705Z,94853.95
2019-05-03T07:10:28.921Z,94858.48
2019-05-03T07:12:54.920Z,94850.38
2019-05-03T07:15:21.078Z,94847.30
2019-05-03T07:17:47.091Z,94842.59
2019-05-03T07:20:14.780Z,94840.76
2019-05-03T07:22:39.115Z,94846.50
2019-05-03T07:25:05.124Z,94847.00
2019-05-03T07:27:31.137Z,94843.01
2019-05-03T07:29:57.143Z,94842.59
2019-05-03T07:32:24.706Z,94852.33
2019-05-03T07:34:49.159Z,94847.42
2019-05-03T07:37:15.156Z,94850.08
2019-05-03T07:39:41.180Z,94839.84
2019-05-03T07:42:07.178Z,94837.27
2019-05-03T07:44:34.733Z,94838.18
2019-05-03T07:46:59.222Z,94840.84
2019-05-03T07:49:25.272Z,94831.11
2019-05-03T07:51:51.267Z,94832.35
2019-05-03T07:54:17.283Z,94830.60
2019-05-03T07:56:44.575Z,94834.60
2019-05-03T07:59:09.348Z,94834.09
2019-05-03T08:01:35.915Z,94826.10
2019-05-03T08:04:01.835Z,94828.14
2019-05-03T08:06:27.861Z,94822.40
2019-05-03T08:08:54.531Z,94818.52
2019-05-03T08:11:19.917Z,94822.52
2019-05-03T08:13:45.928Z,94822.11
2019-05-03T08:16:11.951Z,94823.02
2019-05-03T08:18:37.961Z,94823.02
2019-05-03T08:21:05.537Z,94830.60
2019-05-03T08:23:30.526Z,94829.69
2019-05-03T08:25:56.303Z,94817.70
2019-05-03T08:28:24.413Z,94817.70
2019-05-03T08:30:48.354Z,94816.16
2019-05-03T08:33:14.800Z,94813.91
2019-05-03T08:35:40.362Z,94810.70
2019-05-03T08:38:06.425Z,94802.33
2019-05-03T08:40:32.449Z,94794.72
2019-05-03T08:42:58.461Z,94795.75
2019-05-03T08:45:25.592Z,94797.38
2019-05-03T08:47:50.478Z,94788.17
2019-05-03T08:50:21.393Z,94794.42
2019-05-03T08:52:42.584Z,94783.35
2019-05-03T08:55:08.622Z,94783.35
2019-05-03T08:57:35.422Z,94780.27
2019-05-03T09:00:00.771Z,94773.61
2019-05-03T09:02:26.748Z,94774.95
2019-05-03T09:04:54.542Z,94768.70
2019-05-03T09:07:18.782Z,94768.70
2019-05-03T09:09:46.098Z,94764.20
2019-05-03T09:12:10.850Z,94767.78
2019-05-03T09:14:42.650Z,94762.74
2019-05-03T09:17:04.828Z,94761.41
2019-05-03T09:19:29.039Z,94753.54
2019-05-03T09:21:55.187Z,94752.21
2019-05-03T09:24:21.219Z,94746.88
2019-05-03T09:26:47.219Z,94738.38
2019-05-03T09:29:14.781Z,94736.64
2019-05-03T09:31:39.295Z,94738.47
2019-05-03T09:34:08.005Z,94738.89
2019-05-03T09:36:31.306Z,94743.71
2019-05-03T09:38:57.302Z,94735.72
2019-05-03T09:41:25.346Z,94721.06
2019-05-03T09:43:49.343Z,94718.40
2019-05-03T09:46:15.369Z,94710.50
2019-05-03T09:48:41.394Z,94713.07
2019-05-03T09:51:07.447Z,94708.66
2019-05-03T09:53:35.099Z,94703.13
2019-05-03T09:55:59.469Z,94700.55
2019-05-03T09:58:26.332Z,94702.29
2019-05-03T10:00:51.493Z,94699.62
2019-05-03T10:03:17.519Z,94702.29
2019-05-03T10:05:45.690Z,94696.25
2019-05-03T10:08:09.542Z,94691.92
2019-05-03T10:10:35.726Z,94690.59
2019-05-03T10:13:01.574Z,94683.02
2019-05-03T10:15:27.624Z,94683.14
2019-05-03T10:17:55.521Z,94687.93
2019-05-03T10:20:19.647Z,94686.09
2019-05-03T10:22:45.645Z,94674.23
2019-05-03T10:25:11.663Z,94673.69
2019-05-03T10:27:37.680Z,94674.10
2019-05-03T10:30:12.970Z,94665.06
2019-05-03T10:32:29.716Z,94662.52
2019-05-03T10:34:55.713Z,94660.36
2019-05-03T10:37:21.733Z,94651.87
2019-05-03T10:39:47.732Z,94653.08
2019-05-03T10:42:13.752Z,94646.54
2019-05-03T10:44:39.767Z,94644.70
2019-05-03T10:47:05.772Z,94642.63
2019-05-03T10:49:32.071Z,94636.70
2019-05-03T10:51:58.100Z,94637.63
2019-05-03T10:54:24.100Z,94632.71
2019-05-03T10:56:50.158Z,94637.00
2019-05-03T10:59:16.148Z,94634.21
2019-05-03T11:01:42.203Z,94641.70
2019-05-03T11:04:08.254Z,94628.28
2019-05-03T11:06:35.520Z,94626.00
2019-05-03T11:09:00.482Z,94622.42
2019-05-03T11:11:26.617Z,94616.88
2019-05-03T11:13:52.639Z,94612.78
2019-05-03T11:16:18.644Z,94618.11
2019-05-03T11:18:45.636Z,94601.30
2019-05-03T11:21:10.694Z,94602.54
2019-05-03T11:23:36.693Z,94602.54
2019-05-03T11:26:02.737Z,94598.33
2019-05-03T11:28:28.728Z,94595.03
2019-05-03T11:30:59.896Z,94594.20
2019-05-03T11:33:21.187Z,94596.45
2019-05-03T11:35:47.186Z,94595.03
2019-05-03T11:38:14.934Z,94592.88
2019-05-03T11:40:39.208Z,94586.12
2019-05-03T11:43:05.248Z,94586.00
2019-05-03T11:45:31.245Z,94583.87
2019-05-03T11:47:57.262Z,94588.66
2019-05-03T11:50:25.238Z,94592.24
2019-05-03T11:52:49.289Z,94585.08
2019-05-03T11:55:16.011Z,94580.16
2019-05-03T11:57:41.298Z,94577.49
2019-05-03T12:00:07.297Z,94570.13
2019-05-03T12:02:33.322Z,94561.31
2019-05-03T12:04:59.321Z,94563.05
2019-05-03T12:07:38.532Z,94560.80
2019-05-03T12:09:51.351Z,94546.66
2019-05-03T12:12:17.380Z,94549.41
2019-05-03T12:14:45.228Z,94544.91
2019-05-03T12:17:18.525Z,94534.88
2019-05-03T12:19:37.740Z,94524.95
2019-05-03T12:22:02.064Z,94533.62
2019-05-03T12:24:28.153Z,94529.11
2019-05-03T12:26:55.659Z,94522.45
2019-05-03T12:29:19.566Z,94527.72
2019-05-03T12:31:45.731Z,94525.06
2019-05-03T12:34:11.580Z,94520.61
2019-05-03T12:36:39.183Z,94525.85
2019-05-03T12:39:05.541Z,94524.52
2019-05-03T12:41:29.718Z,94516.11
2019-05-03T12:43:55.719Z,94516.02
2019-05-03T12:46:21.740Z,94504.85
2019-05-03T12:48:47.766Z,94509.23
2019-05-03T12:51:15.221Z,94502.70
2019-05-03T12:53:39.853Z,94500.44
2019-05-03T12:56:11.119Z,94500.03
2019-05-03T12:58:31.886Z,94497.08
2019-05-03T13:00:57.879Z,94490.89
2019-05-03T13:03:24.657Z,94484.96
2019-05-03T13:05:49.920Z,94490.80
2019-05-03T13:08:15.923Z,94484.55
2019-05-03T13:10:41.944Z,94488.13
2019-05-03T13:13:08.019Z,94499.61
2019-05-03T13:15:35.218Z,94502.70
2019-05-03T13:18:00.052Z,94498.70
2019-05-03T13:20:26.056Z,94498.19
2019-05-03T13:22:52.105Z,94486.99
2019-05-03T13:25:18.144Z,94488.73
2019-05-03T13:27:45.933Z,94478.91
2019-05-03T13:30:10.204Z,94481.57
2019-05-03T13:32:36.199Z,94476.66
2019-05-03T13:35:02.221Z,94469.04
2019-05-03T13:37:28.219Z,94473.86
2019-05-03T13:39:55.415Z,94462.91
2019-05-03T13:42:20.246Z,94461.05
2019-05-03T13:44:46.280Z,94456.66
2019-05-03T13:47:12.303Z,94457.37
2019-05-03T13:49:38.300Z,94458.70
2019-05-03T13:52:05.238Z,94461.78
2019-05-03T13:54:30.406Z,94457.88
2019-05-03T13:56:56.461Z,94454.70
2019-05-03T13:59:24.528Z,94454.00
2019-05-03T14:01:48.475Z,94461.05
2019-05-03T14:04:14.799Z,94457.68
2019-05-03T14:06:40.492Z,94460.25
2019-05-03T14:09:06.541Z,94457.17
2019-05-03T14:11:32.540Z,94457.39
2019-05-03T14:13:58.569Z,94454.31
2019-05-03T14:16:24.566Z,94450.92
2019-05-03T14:18:50.594Z,94447.43
2019-05-03T14:21:16.588Z,94442.09
2019-05-03T14:23:42.638Z,94442.22
2019-05-03T14:26:08.659Z,94443.66
2019-05-03T14:28:34.688Z,94436.70
2019-05-03T14:31:00.715Z,94441.11
2019-05-03T14:33:28.336Z,94431.47
2019-05-03T14:35:54.554Z,94437.72
2019-05-03T14:38:18.735Z,94441.02
2019-05-03T14:40:45.222Z,94445.55
2019-05-03T14:43:10.758Z,94441.65
2019-05-03T14:45:36.790Z,94447.67
2019-05-03T14:48:02.790Z,94437.55
2019-05-03T14:50:28.814Z,94443.80
2019-05-03T14:52:57.071Z,94439.81
2019-05-03T14:55:20.855Z,94442.56
2019-05-03T14:57:46.847Z,94438.57
2019-05-03T15:00:16.878Z,94443.10
2019-05-03T15:02:43.564Z,94442.69
2019-05-03T15:05:05.531Z,94440.03
2019-05-03T15:07:30.965Z,94438.70
2019-05-03T15:09:56.964Z,94437.87
2019-05-03T15:12:25.100Z,94432.48
2019-05-03T15:14:48.974Z,94431.02
2019-05-03T15:17:14.994Z,94425.69
2019-05-03T15:19:41.021Z,94426.73
2019-05-03T15:22:07.036Z,94425.40
2019-05-03T15:24:34.614Z,94417.13
2019-05-03T15:26:59.169Z,94423.37
2019-05-03T15:29:25.187Z,94430.13
2019-05-03T15:31:51.180Z,94434.03
2019-05-03T15:34:17.205Z,94439.98
2019-05-03T15:36:44.911Z,94442.74
2019-05-03T15:39:09.225Z,94437.00
2019-05-03T15:41:35.230Z,94446.86
2019-05-03T15:44:01.232Z,94434.46
2019-05-03T15:46:27.258Z,94440.30
2019-05-03T15:48:55.127Z,94438.68
2019-05-03T15:51:19.306Z,94436.43
2019-05-03T15:53:45.328Z,94442.55
2019-05-03T15:56:11.330Z,94437.34
2019-05-03T15:58:37.673Z,94439.59
2019-05-03T16:01:04.739Z,94433.03
2019-05-03T16:03:29.685Z,94436.11
2019-05-03T16:05:55.835Z,94428.94
2019-05-03T16:08:21.717Z,94434.37
2019-05-03T16:10:47.845Z,94437.44
2019-05-03T16:13:14.345Z,94436.52
2019-05-03T16:15:39.872Z,94442.77
2019-05-03T16:18:06.009Z,94441.44
2019-05-03T16:20:32.032Z,94438.90
2019-05-03T16:22:58.077Z,94436.74
2019-05-03T16:25:25.151Z,94443.81
2019-05-03T16:27:50.091Z,94441.16
2019-05-03T16:30:16.088Z,94436.45
2019-05-03T16:32:42.094Z,94440.45
2019-05-03T16:35:08.112Z,94436.96
2019-05-03T16:37:34.520Z,94437.09
2019-05-03T16:40:00.123Z,94438.80
2019-05-03T16:42:26.158Z,94437.47
2019-05-03T16:44:52.182Z,94442.70
2019-05-03T16:47:18.208Z,94444.03
2019-05-03T16:49:44.625Z,94438.58
2019-05-03T16:52:10.259Z,94440.86
2019-05-03T16:54:36.307Z,94441.66
2019-05-03T16:57:02.331Z,94445.23
2019-05-03T16:59:28.329Z,94444.32
2019-05-03T17:01:55.157Z,94449.97
2019-05-03T17:04:20.353Z,94449.84
2019-05-03T17:06:46.367Z,94452.09
2019-05-03T17:09:14.407Z,94457.20
2019-05-03T17:11:38.411Z,94456.28
2019-05-03T17:14:04.990Z,94454.45
2019-05-03T17:16:30.422Z,94462.73
2019-05-03T17:18:56.425Z,94464.18
2019-05-03T17:21:22.426Z,94470.11
2019-05-03T17:23:48.461Z,94469.60
2019-05-03T17:26:14.942Z,94475.44
2019-05-03T17:28:40.516Z,94477.59
2019-05-03T17:31:06.506Z,94475.44
2019-05-03T17:33:32.546Z,94483.97
2019-05-03T17:35:58.540Z,94480.38
2019-05-03T17:38:24.563Z,94478.52
2019-05-03T17:40:50.596Z,94483.05
2019-05-03T17:43:16.597Z,94490.09
2019-05-03T17:45:42.659Z,94495.04
2019-05-03T17:48:11.714Z,94499.03
2019-05-03T17:50:37.746Z,94501.70
2019-05-03T17:53:05.248Z,94500.88
2019-05-03T17:55:29.768Z,94499.95
2019-05-03T17:57:55.839Z,94499.83
2019-05-03T18:00:21.825Z,94503.53
2019-05-03T18:02:47.862Z,94513.27
2019-05-03T18:05:14.645Z,94516.03
2019-05-03T18:07:39.873Z,94526.81
2019-05-03T18:10:05.876Z,94528.23
2019-05-03T18:12:31.900Z,94533.98
2019-05-03T18:14:57.917Z,94541.67
2019-05-03T18:17:24.764Z,94542.59
2019-05-03T18:19:50.015Z,94549.34
2019-05-03T18:22:16.012Z,94557.34
2019-05-03T18:24:42.031Z,94554.17
2019-05-03T18:27:08.029Z,94557.25
2019-05-03T18:29:34.579Z,94561.66
2019-05-03T18:32:00.056Z,94571.39
2019-05-03T18:34:26.060Z,94568.73
2019-05-03T18:36:52.065Z,94573.84
2019-05-03T18:39:18.094Z,94573.52
2019-05-03T18:41:45.198Z,94583.89
2019-05-03T18:44:10.174Z,94581.22
2019-05-03T18:46:36.168Z,94583.48
2019-05-03T18:49:02.205Z,94572.41
2019-05-03T18:51:28.196Z,94571.91
2019-05-03T18:53:54.503Z,94575.75
2019-05-03T18:56:20.267Z,94567.35
2019-05-03T18:58:46.304Z,94574.75
2019-05-03T19:01:12.331Z,94575.13
2019-05-03T19:03:38.619Z,94575.86
2019-05-03T19:06:05.413Z,94585.19
2019-05-03T19:08:31.349Z,94575.86
2019-05-03T19:10:57.347Z,94584.63
2019-05-03T19:13:23.381Z,94582.88
2019-05-03T19:15:49.446Z,94586.25
2019-05-03T19:18:15.503Z,94585.96
2019-05-03T19:20:41.492Z,94585.55
2019-05-03T19:23:07.510Z,94591.92
2019-05-03T19:25:44.031Z,94593.66
2019-05-03T19:27:59.518Z,94595.80
2019-05-03T19:30:25.529Z,94598.37
2019-05-03T19:32:51.566Z,94600.20
2019-05-03T19:35:17.591Z,94600.20
2019-05-03T19:37:46.337Z,94599.63
2019-05-03T19:40:09.633Z,94603.41
2019-05-03T19:42:35.632Z,94608.73
2019-05-03T19:45:01.663Z,94606.58
2019-05-03T19:47:27.681Z,94615.98
2019-05-03T19:49:54.733Z,94610.16
2019-05-03T19:52:21.270Z,94611.69
2019-05-03T19:54:47.277Z,94608.61
2019-05-03T19:57:15.109Z,94606.36
2019-05-03T19:59:39.304Z,94602.36
2019-05-03T20:02:05.307Z,94607.56
2019-05-03T20:04:31.326Z,94613.84
2019-05-03T20:06:57.322Z,94610.36
2019-05-03T20:09:24.541Z,94612.19
2019-05-03T20:11:49.335Z,94604.73
2019-05-03T20:14:15.360Z,94606.86
2019-05-03T20:16:41.405Z,94610.06
2019-05-03T20:19:17.844Z,94618.44
2019-05-03T20:21:35.275Z,94616.19
2019-05-03T20:24:01.280Z,94615.27
2019-05-03T20:26:28.684Z,94612.61
2019-05-03T20:28:55.330Z,94613.84
2019-05-03T20:31:20.701Z,94624.30
2019-05-03T20:33:46.707Z,94621.93
2019-05-03T20:36:12.707Z,94623.27
2019-05-03T20:38:38.728Z,94630.34
2019-05-03T20:41:05.223Z,94632.28
2019-05-03T20:43:30.751Z,94635.86
2019-05-03T20:45:56.739Z,94631.55
2019-05-03T20:48:22.765Z,94634.75
2019-05-03T20:50:49.002Z,94629.01
2019-05-03T20:53:15.052Z,94630.14
2019-05-03T20:55:41.062Z,94627.98
2019-05-03T20:58:08.683Z,94621.86
2019-05-03T21:00:34.582Z,94623.60
2019-05-03T21:02:59.095Z,94620.40
2019-05-03T21:05:30.677Z,94621.44
2019-05-03T21:07:51.177Z,94619.28
2019-05-03T21:10:17.099Z,94632.60
2019-05-03T21:12:43.121Z,94621.16
2019-05-03T21:15:09.134Z,94631.40
2019-05-03T21:17:35.136Z,94628.31
2019-05-03T21:20:01.158Z,94626.57
2019-05-03T21:22:27.156Z,94622.16
2019-05-03T21:24:54.856Z,94623.20
2019-05-03T21:27:19.176Z,94634.69
2019-05-03T21:29:47.159Z,94630.78
2019-05-03T21:32:11.224Z,94629.95
2019-05-03T21:34:37.216Z,94629.86
2019-05-03T21:37:03.232Z,94633.95
2019-05-03T21:39:29.227Z,94632.23
2019-05-03T21:41:55.526Z,94633.16
2019-05-03T21:44:21.303Z,94633.66
2019-05-03T21:46:47.290Z,94638.07
2019-05-03T21:49:14.934Z,94631.92
2019-05-03T21:51:39.314Z,94636.83
2019-05-03T21:54:06.906Z,94631.62
2019-05-03T21:56:31.336Z,94628.05
2019-05-03T21:58:57.328Z,94632.04
2019-05-03T22:01:23.357Z,94637.45
2019-05-03T22:03:49.360Z,94634.80
2019-05-03T22:06:17.120Z,94634.80
2019-05-03T22:08:41.439Z,94643.41
2019-05-03T22:11:07.466Z,94639.00
2019-05-03T22:13:34.917Z,94638.50
2019-05-03T22:15:59.471Z,94635.01
2019-05-03T22:18:25.547Z,94640.34
2019-05-03T22:20:51.538Z,94643.53
2019-05-03T22:23:17.540Z,94646.20
2019-05-03T22:25:43.556Z,94644.75
2019-05-03T22:28:09.552Z,94639.54
2019-05-03T22:30:35.670Z,94639.12
2019-05-03T22:33:01.681Z,94641.88
2019-05-03T22:35:27.673Z,94637.06
2019-05-03T22:37:55.028Z,94636.27
2019-05-03T22:40:19.687Z,94638.01
2019-05-03T22:42:45.711Z,94633.60
2019-05-03T22:45:11.717Z,94631.73
2019-05-03T22:47:37.730Z,94623.03
2019-05-03T22:50:05.390Z,94629.70
2019-05-03T22:52:29.753Z,94627.45
2019-05-03T22:54:55.769Z,94620.37
2019-05-03T22:57:21.770Z,94621.29
2019-05-03T22:59:47.796Z,94619.04
2019-05-03T23:02:16.866Z,94623.16
2019-05-03T23:04:39.817Z,94617.83
2019-05-03T23:07:05.816Z,94611.17
2019-05-03T23:09:31.872Z,94609.14
2019-05-03T23:11:57.882Z,94614.84
2019-05-03T23:14:25.443Z,94608.59
2019-05-03T23:16:49.908Z,94605.52
2019-05-03T23:19:15.903Z,94610.47
2019-05-03T23:21:41.920Z,94617.51
2019-05-03T23:24:07.916Z,94614.84
2019-05-03T23:26:34.854Z,94616.72
2019-05-03T23:28:59.935Z,94609.64
2019-05-03T23:31:25.989Z,94611.48
2019-05-03T23:33:52.004Z,94604.31
2019-05-03T23:36:17.998Z,94603.08
2019-05-03T23:38:45.237Z,94596.83
2019-05-03T23:41:10.076Z,94599.08
2019-05-03T23:43:36.080Z,94598.79
2019-05-03T23:46:02.089Z,94597.45
2019-05-03T23:48:28.093Z,94602.69
2019-05-03T23:50:55.133Z,94606.78
2019-05-03T23:53:20.105Z,94608.11
2019-05-03T23:55:46.105Z,94605.45
2019-05-03T23:58:12.130Z,94603.70
